createdAt,value
2018-09-19T00:00:16.851Z,93.60
2018-09-19T00:02:45.328Z,94.00
2018-09-19T00:05:16.677Z,93.60
2018-09-19T00:07:45.494Z,93.80
2018-09-19T00:10:14.972Z,93.90
2018-09-19T00:12:44.150Z,93.80
2018-09-19T00:15:13.630Z,93.90
2018-09-19T00:17:43.370Z,94.10
2018-09-19T00:20:12.152Z,94.30
2018-09-19T00:22:41.418Z,94.40
2018-09-19T00:25:11.118Z,94.60
2018-09-19T00:27:40.665Z,94.60
2018-09-19T00:30:09.492Z,94.70
2018-09-19T00:32:37.933Z,94.70
2018-09-19T00:35:06.406Z,94.80
2018-09-19T00:37:35.129Z,94.90
2018-09-19T00:40:03.630Z,94.90
2018-09-19T00:42:32.095Z,95.10
2018-09-19T00:45:00.533Z,95.10
2018-09-19T00:47:28.993Z,95.10
2018-09-19T00:49:57.502Z,95.30
2018-09-19T00:52:25.979Z,95.20
2018-09-19T00:54:54.486Z,95.40
2018-09-19T00:57:22.971Z,95.50
2018-09-19T00:59:51.451Z,95.40
2018-09-19T01:02:19.915Z,95.50
2018-09-19T01:04:48.787Z,95.50
2018-09-19T01:07:17.294Z,95.50
2018-09-19T01:09:45.763Z,95.60
2018-09-19T01:12:14.203Z,95.60
2018-09-19T01:14:42.709Z,95.70
2018-09-19T01:17:11.157Z,95.80
2018-09-19T01:19:39.631Z,95.80
2018-09-19T01:22:08.084Z,95.90
2018-09-19T01:24:36.566Z,96.10
2018-09-19T01:27:05.291Z,96.10
2018-09-19T01:29:33.792Z,96.20
2018-09-19T01:32:02.237Z,96.50
2018-09-19T01:34:30.722Z,96.40
2018-09-19T01:36:59.193Z,96.30
2018-09-19T01:39:27.636Z,96.20
2018-09-19T01:41:56.123Z,96.20
2018-09-19T01:44:24.597Z,96.40
2018-09-19T01:46:53.078Z,96.40
2018-09-19T01:49:21.582Z,96.40
2018-09-19T01:51:53.254Z,96.50
2018-09-19T01:54:23.102Z,96.40
2018-09-19T01:56:51.638Z,96.40
2018-09-19T01:59:20.124Z,96.50
2018-09-19T02:01:48.740Z,96.40
2018-09-19T02:04:17.553Z,96.50
2018-09-19T02:06:46.085Z,96.70
2018-09-19T02:09:14.528Z,97.00
2018-09-19T02:11:43.395Z,96.80
2018-09-19T02:14:12.801Z,96.80
2018-09-19T02:16:41.577Z,96.90
2018-09-19T02:19:10.150Z,97.10
2018-09-19T02:21:38.609Z,97.50
2018-09-19T02:24:07.206Z,97.10
2018-09-19T02:26:35.678Z,97.20
2018-09-19T02:29:04.166Z,97.20
2018-09-19T02:31:32.650Z,97.40
2018-09-19T02:34:01.181Z,97.40
2018-09-19T02:36:29.701Z,97.40
2018-09-19T02:38:59.028Z,97.50
2018-09-19T02:41:27.497Z,97.90
2018-09-19T02:43:55.965Z,97.70
2018-09-19T02:46:24.425Z,97.80
2018-09-19T02:48:52.964Z,97.60
2018-09-19T02:51:21.470Z,97.60
2018-09-19T02:53:49.935Z,97.40
2018-09-19T02:56:18.419Z,97.40
2018-09-19T02:58:46.934Z,97.30
2018-09-19T03:01:15.380Z,97.20
2018-09-19T03:03:43.866Z,97.30
2018-09-19T03:06:12.313Z,97.30
2018-09-19T03:08:40.758Z,97.50
2018-09-19T03:11:09.299Z,97.50
2018-09-19T03:13:37.781Z,97.60
2018-09-19T03:16:06.265Z,97.60
2018-09-19T03:18:34.710Z,97.70
2018-09-19T03:21:03.216Z,98.00
2018-09-19T03:23:31.695Z,97.80
2018-09-19T03:26:00.175Z,97.90
2018-09-19T03:28:28.606Z,97.80
2018-09-19T03:30:57.073Z,98.00
2018-09-19T03:33:25.588Z,98.00
2018-09-19T03:35:54.097Z,98.10
2018-09-19T03:38:22.576Z,98.40
2018-09-19T03:40:51.052Z,98.40
2018-09-19T03:43:19.694Z,98.70
2018-09-19T03:45:48.149Z,98.90
2018-09-19T03:48:16.699Z,99.30
2018-09-19T03:50:45.284Z,99.60
2018-09-19T03:53:13.821Z,99.40
2018-09-19T03:55:42.269Z,99.50
2018-09-19T03:58:10.910Z,99.70
2018-09-19T04:00:39.325Z,99.90
2018-09-19T04:03:07.758Z,99.90
2018-09-19T04:05:36.206Z,99.90
2018-09-19T04:08:04.675Z,99.90
2018-09-19T04:10:33.226Z,99.90
2018-09-19T04:13:01.702Z,99.90
2018-09-19T04:15:30.298Z,99.90
2018-09-19T04:17:58.830Z,99.90
2018-09-19T04:20:27.202Z,99.90
2018-09-19T04:22:55.689Z,99.90
2018-09-19T04:25:24.198Z,99.90
2018-09-19T04:27:52.675Z,99.90
2018-09-19T04:30:21.134Z,99.90
2018-09-19T04:32:49.651Z,99.90
2018-09-19T04:35:18.101Z,99.90
2018-09-19T04:37:46.591Z,99.90
2018-09-19T04:40:15.074Z,99.90
2018-09-19T04:42:43.518Z,99.90
2018-09-19T04:45:11.996Z,99.90
2018-09-19T04:47:40.517Z,99.90
2018-09-19T04:50:08.992Z,99.90
2018-09-19T04:52:37.441Z,99.90
2018-09-19T04:55:06.544Z,99.90
2018-09-19T04:57:34.986Z,99.90
2018-09-19T05:00:03.526Z,99.90
2018-09-19T05:02:31.956Z,99.90
2018-09-19T05:05:00.411Z,99.90
2018-09-19T05:07:28.943Z,99.90
2018-09-19T05:09:57.345Z,99.90
2018-09-19T05:12:25.792Z,99.90
2018-09-19T05:14:54.309Z,99.90
2018-09-19T05:17:22.785Z,99.90
2018-09-19T05:19:51.237Z,99.90
2018-09-19T05:22:19.703Z,99.90
2018-09-19T05:24:48.219Z,99.90
2018-09-19T05:27:16.685Z,99.90
2018-09-19T05:29:45.652Z,99.90
2018-09-19T05:32:14.100Z,99.90
2018-09-19T05:34:42.556Z,99.90
2018-09-19T05:37:11.032Z,99.90
2018-09-19T05:39:39.618Z,99.90
2018-09-19T05:42:08.093Z,99.90
2018-09-19T05:44:36.648Z,99.90
2018-09-19T05:47:05.198Z,99.90
2018-09-19T05:49:33.644Z,99.90
2018-09-19T05:52:02.123Z,99.80
2018-09-19T05:54:30.612Z,99.80
2018-09-19T05:56:59.061Z,99.70
2018-09-19T05:59:27.614Z,99.60
2018-09-19T06:01:56.147Z,99.50
2018-09-19T06:04:24.593Z,99.40
2018-09-19T06:06:53.170Z,99.20
2018-09-19T06:09:21.625Z,99.20
2018-09-19T06:11:50.087Z,99.10
2018-09-19T06:14:18.580Z,99.10
2018-09-19T06:16:47.045Z,99.00
2018-09-19T06:19:15.499Z,99.00
2018-09-19T06:21:44.677Z,98.80
2018-09-19T06:24:13.151Z,98.70
2018-09-19T06:26:41.609Z,98.60
2018-09-19T06:29:10.057Z,98.40
2018-09-19T06:31:38.563Z,98.30
2018-09-19T06:34:07.024Z,97.90
2018-09-19T06:36:35.562Z,98.20
2018-09-19T06:39:04.904Z,97.60
2018-09-19T06:41:33.354Z,97.50
2018-09-19T06:44:01.825Z,97.50
2018-09-19T06:46:30.297Z,97.30
2018-09-19T06:48:58.734Z,97.10
2018-09-19T06:51:27.309Z,96.80
2018-09-19T06:53:56.196Z,96.50
2018-09-19T06:56:24.654Z,96.40
2018-09-19T06:58:53.146Z,96.20
2018-09-19T07:01:21.769Z,95.80
2018-09-19T07:03:50.270Z,95.50
2018-09-19T07:06:18.858Z,95.30
2018-09-19T07:08:47.544Z,95.20
2018-09-19T07:11:15.988Z,95.00
2018-09-19T07:13:44.431Z,94.80
2018-09-19T07:16:12.933Z,94.50
2018-09-19T07:18:41.433Z,94.00
2018-09-19T07:21:09.904Z,93.70
2018-09-19T07:23:38.457Z,93.30
2018-09-19T07:26:07.099Z,92.80
2018-09-19T07:28:35.536Z,92.50
2018-09-19T07:31:04.028Z,92.00
2018-09-19T07:33:32.542Z,88.90
2018-09-19T07:36:01.879Z,87.40
2018-09-19T07:38:30.340Z,84.00
2018-09-19T07:40:58.794Z,82.60
2018-09-19T07:43:27.290Z,82.20
2018-09-19T07:45:55.858Z,81.30
2018-09-19T07:48:24.392Z,80.40
2018-09-19T07:50:52.813Z,79.40
2018-09-19T07:53:21.296Z,81.00
2018-09-19T07:55:49.736Z,83.70
2018-09-19T07:58:18.213Z,85.20
2018-09-19T08:00:46.758Z,86.00
2018-09-19T08:03:15.160Z,87.30
2018-09-19T08:05:43.939Z,87.10
2018-09-19T08:08:12.392Z,85.00
2018-09-19T08:10:40.824Z,81.50
2018-09-19T08:13:09.995Z,80.40
2018-09-19T08:15:38.436Z,79.20
2018-09-19T08:18:06.979Z,79.10
2018-09-19T08:20:35.441Z,78.10
2018-09-19T08:23:03.912Z,77.10
2018-09-19T08:25:32.458Z,77.10
2018-09-19T08:28:01.088Z,76.80
2018-09-19T08:30:30.534Z,76.20
2018-09-19T08:32:59.224Z,74.80
2018-09-19T08:35:28.028Z,75.30
2018-09-19T08:37:56.598Z,75.30
2018-09-19T08:40:25.178Z,75.30
2018-09-19T08:42:53.653Z,74.60
2018-09-19T08:45:22.077Z,73.40
2018-09-19T08:47:50.566Z,74.30
2018-09-19T08:50:19.032Z,74.30
2018-09-19T08:52:47.570Z,74.50
2018-09-19T08:55:16.102Z,74.80
2018-09-19T08:57:44.638Z,75.70
2018-09-19T09:00:13.093Z,74.30
2018-09-19T09:02:41.592Z,74.10
2018-09-19T09:05:10.083Z,73.80
2018-09-19T09:07:38.558Z,74.60
2018-09-19T09:10:07.654Z,73.70
2018-09-19T09:12:36.150Z,73.50
2018-09-19T09:15:04.710Z,71.90
2018-09-19T09:17:33.186Z,71.70
2018-09-19T09:20:01.878Z,70.80
2018-09-19T09:22:30.203Z,70.10
2018-09-19T09:24:59.551Z,69.60
2018-09-19T09:27:28.934Z,69.90
2018-09-19T09:29:57.318Z,69.80
2018-09-19T09:32:25.911Z,70.20
2018-09-19T09:34:54.366Z,70.00
2018-09-19T09:37:22.805Z,70.80
2018-09-19T09:39:51.281Z,70.80
2018-09-19T09:42:19.731Z,70.70
2018-09-19T09:44:48.178Z,69.60
2018-09-19T09:47:16.685Z,68.70
2018-09-19T09:49:45.138Z,67.80
2018-09-19T09:52:14.363Z,67.30
2018-09-19T09:54:42.840Z,67.10
2018-09-19T09:57:11.330Z,66.00
2018-09-19T09:59:39.800Z,64.60
2018-09-19T10:02:08.381Z,64.70
2018-09-19T10:04:36.878Z,65.10
2018-09-19T10:07:05.800Z,65.20
2018-09-19T10:09:34.248Z,64.40
2018-09-19T10:12:02.785Z,64.40
2018-09-19T10:14:31.350Z,64.10
2018-09-19T10:16:59.778Z,63.60
2018-09-19T10:19:28.249Z,65.10
2018-09-19T10:21:56.787Z,64.20
2018-09-19T10:24:25.228Z,64.00
2018-09-19T10:26:53.706Z,62.90
2018-09-19T10:29:22.170Z,61.90
2018-09-19T10:31:50.604Z,60.20
2018-09-19T10:34:19.027Z,59.50
2018-09-19T10:36:47.472Z,61.30
2018-09-19T10:39:15.985Z,62.20
2018-09-19T10:41:44.422Z,61.90
2018-09-19T10:44:12.862Z,60.70
2018-09-19T10:46:41.317Z,59.20
2018-09-19T10:49:09.763Z,60.00
2018-09-19T10:51:38.238Z,59.70
2018-09-19T10:54:06.684Z,60.70
2018-09-19T10:56:35.650Z,60.50
2018-09-19T10:59:04.120Z,59.20
2018-09-19T11:01:32.566Z,58.80
2018-09-19T11:04:01.071Z,59.50
2018-09-19T11:06:29.534Z,60.30
2018-09-19T11:08:58.001Z,59.00
2018-09-19T11:11:26.455Z,58.90
2018-09-19T11:13:55.009Z,59.40
2018-09-19T11:16:23.472Z,59.40
2018-09-19T11:18:51.937Z,62.50
2018-09-19T11:21:20.378Z,63.00
2018-09-19T11:23:48.825Z,62.80
2018-09-19T11:26:17.331Z,62.20
2018-09-19T11:28:45.733Z,63.00
2018-09-19T11:31:14.190Z,63.90
2018-09-19T11:33:42.697Z,64.80
2018-09-19T11:36:11.124Z,65.70
2018-09-19T11:38:39.569Z,65.90
2018-09-19T11:41:08.427Z,65.00
2018-09-19T11:43:37.230Z,62.00
2018-09-19T11:46:05.909Z,59.90
2018-09-19T11:48:34.491Z,59.50
2018-09-19T11:51:02.922Z,58.70
2018-09-19T11:53:31.385Z,57.80
2018-09-19T11:56:00.696Z,57.50
2018-09-19T11:58:30.254Z,57.50
2018-09-19T12:00:59.342Z,56.90
2018-09-19T12:03:28.549Z,54.40
2018-09-19T12:05:57.021Z,54.70
2018-09-19T12:08:25.553Z,54.10
2018-09-19T12:10:54.002Z,55.00
2018-09-19T12:13:22.441Z,55.10
2018-09-19T12:15:50.991Z,55.60
2018-09-19T12:18:19.436Z,54.00
2018-09-19T12:20:47.881Z,54.50
2018-09-19T12:23:16.332Z,54.10
2018-09-19T12:25:44.788Z,53.10
2018-09-19T12:28:13.214Z,53.80
2018-09-19T12:30:41.684Z,54.80
2018-09-19T12:33:10.195Z,53.20
2018-09-19T12:35:38.666Z,53.00
2018-09-19T12:38:07.209Z,51.40
2018-09-19T12:40:36.273Z,51.00
2018-09-19T12:43:04.881Z,52.50
2018-09-19T12:45:33.319Z,53.30
2018-09-19T12:48:01.778Z,53.10
2018-09-19T12:50:30.527Z,53.00
2018-09-19T12:52:58.970Z,53.70
2018-09-19T12:55:27.440Z,54.00
2018-09-19T12:57:55.902Z,53.00
2018-09-19T13:00:24.448Z,52.60
2018-09-19T13:02:52.924Z,53.60
2018-09-19T13:05:21.650Z,52.70
2018-09-19T13:07:50.159Z,51.00
2018-09-19T13:10:18.770Z,51.50
2018-09-19T13:12:47.200Z,51.80
2018-09-19T13:15:15.709Z,52.30
2018-09-19T13:17:44.185Z,51.90
2018-09-19T13:20:12.791Z,52.10
2018-09-19T13:22:41.270Z,51.30
2018-09-19T13:25:09.706Z,51.60
2018-09-19T13:27:38.192Z,51.90
2018-09-19T13:30:06.649Z,50.50
2018-09-19T13:32:35.101Z,51.20
2018-09-19T13:35:03.638Z,50.40
2018-09-19T13:37:32.080Z,50.60
2018-09-19T13:40:00.678Z,50.50
2018-09-19T13:42:29.212Z,50.60
2018-09-19T13:44:57.712Z,49.80
2018-09-19T13:47:26.379Z,49.30
2018-09-19T13:49:58.029Z,50.00
2018-09-19T13:52:26.471Z,50.30
2018-09-19T13:54:54.929Z,49.60
2018-09-19T13:57:23.878Z,48.70
2018-09-19T13:59:52.537Z,49.30
2018-09-19T14:02:21.005Z,48.20
2018-09-19T14:04:49.469Z,48.70
2018-09-19T14:07:18.005Z,49.10
2018-09-19T14:09:46.583Z,48.80
2018-09-19T14:12:15.209Z,48.40
2018-09-19T14:14:43.670Z,49.00
2018-09-19T14:17:12.123Z,49.60
2018-09-19T14:19:40.700Z,49.40
2018-09-19T14:22:09.341Z,49.60
2018-09-19T14:24:37.973Z,49.40
2018-09-19T14:27:06.802Z,48.90
2018-09-19T14:29:35.353Z,47.60
2018-09-19T14:32:04.034Z,47.10
2018-09-19T14:34:32.492Z,47.70
2018-09-19T14:37:01.554Z,47.80
2018-09-19T14:39:30.063Z,47.80
2018-09-19T14:41:58.517Z,47.30
2018-09-19T14:44:27.061Z,47.70
2018-09-19T14:46:55.494Z,48.10
2018-09-19T14:49:24.877Z,46.90
2018-09-19T14:51:53.391Z,47.80
2018-09-19T14:54:22.964Z,48.10
2018-09-19T14:56:51.499Z,48.10
2018-09-19T14:59:20.017Z,48.70
2018-09-19T15:01:48.841Z,48.90
2018-09-19T15:04:17.282Z,47.90
2018-09-19T15:06:45.759Z,47.10
2018-09-19T15:09:14.200Z,46.50
2018-09-19T15:11:42.776Z,48.30
2018-09-19T15:14:11.358Z,49.80
2018-09-19T15:16:39.835Z,51.70
2018-09-19T15:19:08.321Z,52.30
2018-09-19T15:21:36.764Z,53.00
2018-09-19T15:24:05.234Z,53.50
2018-09-19T15:26:33.710Z,52.80
2018-09-19T15:29:02.767Z,52.70
2018-09-19T15:31:31.679Z,53.10
2018-09-19T15:34:00.443Z,52.80
2018-09-19T15:36:28.946Z,51.40
2018-09-19T15:38:57.404Z,52.30
2018-09-19T15:41:26.011Z,52.80
2018-09-19T15:43:54.537Z,53.40
2018-09-19T15:46:23.025Z,53.60
2018-09-19T15:48:51.527Z,54.00
2018-09-19T15:51:20.174Z,54.10
2018-09-19T15:53:48.666Z,54.50
2018-09-19T15:56:17.140Z,54.80
2018-09-19T15:58:45.785Z,54.60
2018-09-19T16:01:14.364Z,54.90
2018-09-19T16:03:42.902Z,55.20
2018-09-19T16:06:11.610Z,55.20
2018-09-19T16:08:40.037Z,54.70
2018-09-19T16:11:08.697Z,54.90
2018-09-19T16:13:37.235Z,55.00
2018-09-19T16:16:05.709Z,54.90
2018-09-19T16:18:34.206Z,55.00
2018-09-19T16:21:02.692Z,55.40
2018-09-19T16:23:37.322Z,55.70
2018-09-19T16:26:05.796Z,55.80
2018-09-19T16:28:34.970Z,55.70
2018-09-19T16:31:03.506Z,56.00
2018-09-19T16:33:32.031Z,56.00
2018-09-19T16:36:00.522Z,56.20
2018-09-19T16:38:29.049Z,56.30
2018-09-19T16:40:57.599Z,56.40
2018-09-19T16:43:26.067Z,56.50
2018-09-19T16:45:54.629Z,56.70
2018-09-19T16:48:23.085Z,57.30
2018-09-19T16:50:51.554Z,56.80
2018-09-19T16:53:20.037Z,56.60
2018-09-19T16:55:50.584Z,56.40
2018-09-19T16:58:19.138Z,56.30
2018-09-19T17:00:47.654Z,55.90
2018-09-19T17:03:16.186Z,56.10
2018-09-19T17:05:44.700Z,57.10
2018-09-19T17:08:13.161Z,56.50
2018-09-19T17:10:42.027Z,56.70
2018-09-19T17:13:10.613Z,56.90
2018-09-19T17:15:39.239Z,57.10
2018-09-19T17:18:07.717Z,57.40
2018-09-19T17:20:36.236Z,57.70
2018-09-19T17:23:04.761Z,58.00
2018-09-19T17:25:33.277Z,58.00
2018-09-19T17:28:01.823Z,59.00
2018-09-19T17:30:30.349Z,59.30
2018-09-19T17:32:58.834Z,59.60
2018-09-19T17:35:27.343Z,60.00
2018-09-19T17:37:56.051Z,60.10
2018-09-19T17:40:27.055Z,60.40
2018-09-19T17:42:58.329Z,60.60
2018-09-19T17:45:31.381Z,61.20
2018-09-19T17:47:59.949Z,62.20
2018-09-19T17:50:28.474Z,61.40
2018-09-19T17:52:57.012Z,61.60
2018-09-19T17:55:25.662Z,62.10
2018-09-19T17:57:54.315Z,62.20
2018-09-19T18:00:22.891Z,62.60
2018-09-19T18:02:51.615Z,63.00
2018-09-19T18:05:41.406Z,63.40
2018-09-19T18:08:09.936Z,63.30
2018-09-19T18:10:38.469Z,63.60
2018-09-19T18:13:07.031Z,64.00
2018-09-19T18:15:35.577Z,64.10
2018-09-19T18:18:04.126Z,64.50
2018-09-19T18:20:32.734Z,64.70
2018-09-19T18:23:01.470Z,65.10
2018-09-19T18:25:30.006Z,65.10
2018-09-19T18:27:58.554Z,65.70
2018-09-19T18:30:27.286Z,65.90
2018-09-19T18:32:56.136Z,66.20
2018-09-19T18:35:26.017Z,66.40
2018-09-19T18:37:57.814Z,66.60
2018-09-19T18:40:29.338Z,67.00
2018-09-19T18:43:07.911Z,67.30
2018-09-19T18:45:39.756Z,67.70
2018-09-19T18:48:11.786Z,68.30
2018-09-19T18:50:40.253Z,68.50
2018-09-19T18:53:08.858Z,68.70
2018-09-19T18:55:37.484Z,70.00
2018-09-19T18:58:06.072Z,70.60
2018-09-19T19:00:34.715Z,70.80
2018-09-19T19:03:03.239Z,71.60
2018-09-19T19:05:31.769Z,71.90
2018-09-19T19:08:00.410Z,72.70
2018-09-19T19:10:34.534Z,73.00
2018-09-19T19:13:10.474Z,74.00
2018-09-19T19:15:50.452Z,74.20
2018-09-19T19:18:19.632Z,75.20
2018-09-19T19:20:54.323Z,75.70
2018-09-19T19:23:25.783Z,75.90
2018-09-19T19:25:57.926Z,76.70
2018-09-19T19:28:28.667Z,76.90
2018-09-19T19:30:57.246Z,76.40
2018-09-19T19:33:25.809Z,77.10
2018-09-19T19:35:54.366Z,76.70
2018-09-19T19:38:22.882Z,76.70
2018-09-19T19:40:51.451Z,76.50
2018-09-19T19:43:20.002Z,76.60
2018-09-19T19:45:48.513Z,76.40
2018-09-19T19:48:17.031Z,76.30
2018-09-19T19:50:45.563Z,76.20
2018-09-19T19:53:14.282Z,76.20
2018-09-19T19:55:42.802Z,76.40
2018-09-19T19:58:11.363Z,77.00
2018-09-19T20:00:39.919Z,77.20
2018-09-19T20:03:08.463Z,77.50
2018-09-19T20:05:37.298Z,78.30
2018-09-19T20:08:06.285Z,78.90
2018-09-19T20:10:35.445Z,79.50
2018-09-19T20:13:04.124Z,79.60
2018-09-19T20:15:32.647Z,80.40
2018-09-19T20:18:01.167Z,81.20
2018-09-19T20:20:29.667Z,81.70
2018-09-19T20:22:58.217Z,82.00
2018-09-19T20:25:26.686Z,82.40
2018-09-19T20:27:55.241Z,82.50
2018-09-19T20:30:23.761Z,82.40
2018-09-19T20:32:52.189Z,82.70
2018-09-19T20:35:20.684Z,82.80
2018-09-19T20:37:49.302Z,82.90
2018-09-19T20:40:17.823Z,82.90
2018-09-19T20:42:46.353Z,83.00
2018-09-19T20:45:14.817Z,83.10
2018-09-19T20:47:43.295Z,84.50
2018-09-19T20:50:11.756Z,83.40
2018-09-19T20:52:40.217Z,83.40
2018-09-19T20:55:08.705Z,83.50
2018-09-19T20:57:37.178Z,83.90
2018-09-19T21:00:05.864Z,83.80
2018-09-19T21:02:34.298Z,84.10
2018-09-19T21:05:03.082Z,84.00
2018-09-19T21:07:31.605Z,84.50
2018-09-19T21:10:00.090Z,84.60
2018-09-19T21:12:28.700Z,84.60
2018-09-19T21:14:57.262Z,84.20
2018-09-19T21:17:26.110Z,84.00
2018-09-19T21:19:54.819Z,84.60
2018-09-19T21:22:23.486Z,85.10
2018-09-19T21:24:51.929Z,85.60
2018-09-19T21:27:20.849Z,85.80
2018-09-19T21:29:49.449Z,85.50
2018-09-19T21:32:18.536Z,85.30
2018-09-19T21:34:47.443Z,85.50
2018-09-19T21:37:16.291Z,85.80
2018-09-19T21:39:44.991Z,86.10
2018-09-19T21:42:13.598Z,86.40
2018-09-19T21:44:42.685Z,86.60
2018-09-19T21:47:11.463Z,86.90
2018-09-19T21:49:39.996Z,87.40
2018-09-19T21:52:08.555Z,87.60
2018-09-19T21:54:37.150Z,87.50
2018-09-19T21:57:05.670Z,88.20
2018-09-19T21:59:35.300Z,88.50
2018-09-19T22:02:03.834Z,88.60
2018-09-19T22:04:32.402Z,90.00
2018-09-19T22:07:01.019Z,89.50
2018-09-19T22:09:29.505Z,89.90
2018-09-19T22:11:58.148Z,90.00
2018-09-19T22:14:26.764Z,90.00
2018-09-19T22:16:55.330Z,90.30
2018-09-19T22:19:25.134Z,90.40
2018-09-19T22:21:53.621Z,90.50
2018-09-19T22:24:22.178Z,90.50
2018-09-19T22:26:50.778Z,90.50
2018-09-19T22:29:20.722Z,90.40
2018-09-19T22:31:49.243Z,90.50
2018-09-19T22:34:17.814Z,90.50
2018-09-19T22:36:46.333Z,90.60
2018-09-19T22:39:14.857Z,90.60
2018-09-19T22:41:43.441Z,90.80
2018-09-19T22:44:12.013Z,91.00
2018-09-19T22:46:40.543Z,90.90
2018-09-19T22:49:09.065Z,91.10
2018-09-19T22:51:37.736Z,91.20
2018-09-19T22:54:06.462Z,91.30
2018-09-19T22:56:35.018Z,91.30
2018-09-19T22:59:03.573Z,91.30
2018-09-19T23:01:32.076Z,91.50
2018-09-19T23:04:00.696Z,91.60
2018-09-19T23:06:29.239Z,91.60
2018-09-19T23:08:57.865Z,91.70
2018-09-19T23:11:26.450Z,91.80
2018-09-19T23:13:55.017Z,91.90
2018-09-19T23:16:23.499Z,91.90
2018-09-19T23:18:52.000Z,92.00
2018-09-19T23:21:20.550Z,91.90
2018-09-19T23:23:49.279Z,92.10
2018-09-19T23:26:17.858Z,92.10
2018-09-19T23:28:46.458Z,92.10
2018-09-19T23:31:14.977Z,92.10
2018-09-19T23:33:43.469Z,92.20
2018-09-19T23:36:11.964Z,92.30
2018-09-19T23:38:40.494Z,92.40
2018-09-19T23:41:08.973Z,92.50
2018-09-19T23:43:37.462Z,92.40
2018-09-19T23:46:05.930Z,92.30
2018-09-19T23:48:34.408Z,92.40
2018-09-19T23:51:02.898Z,92.40
2018-09-19T23:53:31.873Z,92.40
2018-09-19T23:56:00.345Z,92.50
2018-09-19T23:58:29.689Z,92.50
